Date,TemperatureHighF,TemperatureAvgF,TemperatureLowF,DewpointHighF,DewpointAvgF,DewpointLowF,HumidityHigh,HumidityAvg,HumidityLow,PressureMaxIn,PressureMinIn,WindSpeedMaxMPH,WindSpeedAvgMPH,GustSpeedMaxMPH,PrecipitationSumIn
2013-1-1,71,70,69,66,66,65,88,87,84,28.51,28.51,2,1,5,0.00
2013-1-2,78,72,68,69,68,65,92,85,72,28.51,21.85,7,2,15,0.00
2013-1-3,79,74,70,70,69,67,94,85,71,29.98,26.09,8,3,14,0.00
2013-1-4,79,74,71,73,71,69,96,89,76,29.98,29.98,8,3,13,0.01
2013-1-5,80,74,71,72,70,69,96,88,75,29.98,29.24,7,2,16,0.02
2013-1-6,79,75,73,72,70,68,91,86,79,29.24,29.24,11,5,20,0.01
2013-1-7,81,76,72,70,69,68,89,81,69,29.24,29.24,5,2,12,0.00
2013-1-8,79,76,74,73,71,69,90,85,75,29.24,29.24,11,5,20,0.02
2013-1-9,81,77,75,73,71,69,87,82,76,29.24,29.24,10,6,21,0.02
2013-1-10,79,77,74,70,69,66,83,76,67,29.24,16.33,9,6,18,0.00
2013-1-11,79,79,79,70,70,70,73,73,73,16.76,16.33,7,7,8,0.00
2013-1-12,79,79,79,70,70,70,73,73,73,16.76,16.76,7,7,8,0.00
2013-1-13,79,79,79,70,70,70,73,73,73,16.76,16.76,7,7,8,0.00
2013-1-14,74,74,73,67,67,67,82,80,78,31.29,31.29,5,4,13,0.00
2013-1-15,74,73,72,67,67,65,82,81,77,32.05,31.29,6,2,13,0.00
2013-1-16,73,73,73,67,67,67,82,82,82,32.05,32.05,1,1,3,0.00
2013-1-17,73,73,73,67,67,59,82,82,82,32.05,32.05,10,1,20,0.00
2013-1-18,65,62,58,62,55,51,89,78,66,32.05,16.71,11,4,20,0.00
2013-1-19,75,68,64,68,64,61,96,86,76,31.90,16.71,4,2,9,0.01
2013-1-20,78,72,66,70,68,65,97,88,69,30.18,23.14,6,2,10,0.02
2013-1-21,78,73,68,70,68,64,93,86,73,25.78,17.82,12,4,20,0.01
2013-1-22,75,69,63,64,63,61,95,81,65,30.80,25.78,12,5,20,0.00
2013-1-23,74,70,67,61,58,55,82,65,55,30.80,30.80,6,4,13,0.00
2013-1-24,73,68,62,62,60,58,89,76,64,30.80,30.80,5,3,13,0.00
2013-1-25,76,69,64,61,58,55,83,69,48,30.80,30.80,6,3,17,0.00
2013-1-26,75,70,64,65,62,60,89,77,69,32.46,29.46,7,2,15,0.00
2013-1-27,78,74,71,68,66,65,87,78,67,29.95,28.33,8,4,18,0.00
2013-1-28,78,75,72,67,66,64,82,74,67,31.61,16.50,7,4,18,0.00
2013-1-29,78,76,74,70,68,66,81,75,71,31.54,16.50,13,5,23,0.00
2013-1-30,78,74,73,70,68,65,87,79,71,31.57,22.77,12,8,23,0.00
2013-1-31,79,72,66,73,66,58,89,81,75,28.61,22.77,9,4,18,0.00
2013-2-1,71,65,59,61,55,50,76,69,65,31.11,28.61,9,5,20,0.00
2013-2-2,75,68,61,58,56,54,84,66,53,31.11,31.11,6,2,16,0.00
2013-2-3,65,63,62,62,58,57,90,86,76,31.11,31.11,5,1,9,0.00
2013-2-6,68,68,67,65,65,65,93,89,89,31.12,16.58,1,1,2,0.00
2013-2-7,68,68,68,65,65,65,89,89,89,16.58,16.58,1,1,2,0.00
2013-2-8,68,68,68,65,65,65,89,89,89,16.58,16.58,1,1,2,0.00
2013-2-9,68,68,68,65,65,65,89,89,89,16.58,16.58,1,1,2,0.00
2013-2-10,68,68,68,65,65,65,89,89,89,16.58,16.58,1,1,2,0.00
2013-2-11,68,68,68,65,65,65,89,89,89,16.58,16.58,1,1,2,0.00
2013-2-12,78,75,68,70,68,65,89,80,76,20.64,16.58,8,5,14,0.00
2013-2-13,78,78,78,70,70,70,76,76,76,20.64,20.64,6,6,6,0.00